• Join FlightAware (Why Join?)
  • Login
  • US Flag 
02:41AM EST


 

Airport Tracker/Info


-or-


 

Live Flight TrackerFlight Track Log ✈ SWA1086 ✈ 10-May-2013 ✈ KOKC - KMCI

Flight Track Log - Related Links

Times and Time Zones

All times are in EDT time to prevent confusion due to time zone crossing. See the SWA1086 flight status page for this flight to view local times or setup timezone preferences in your user account.

Time Position Orientation Groundspeed Altitude Reporting Facility
EDT Latitude Longitude Course Direction KTS MPH feet Rate Location/Type
11:03AM 35.4103 -97.6250 356° North 154 177 2,200  Level Fort Worth Center
11:04AM 35.4414 -97.6275 356° North 188 216 3,500 2,220 Climbing Fort Worth Center
11:05AM 35.5333 -97.6006 13° North 226 260 7,300 2,700 Climbing Kansas City Center
11:06AM 35.6136 -97.5983 North 278 320 10,500 2,640 Climbing Kansas City Center
11:07AM 35.7053 -97.5953 North 314 361 12,800 2,580 Climbing Kansas City Center
11:08AM 35.8008 -97.5914 North 337 388 15,800 2,520 Climbing Kansas City Center
11:09AM 35.8981 -97.5608 14° North 359 413 18,000 2,340 Climbing Kansas City Center
11:10AM 36.0167 -97.5053 21° North 377 434 20,700 2,280 Climbing Kansas City Center
11:11AM 36.1203 -97.4569 21° North 389 448 22,800 1,920 Climbing Kansas City Center
11:12AM 36.2250 -97.4078 21° North 398 458 24,700 1,560 Climbing Kansas City Center
11:14AM 36.3339 -97.3539 22° Northeast 414 476 26,100 1,440 Climbing Kansas City Center
11:15AM 36.4458 -97.3017 21° North 424 488 27,700 1,320 Climbing Kansas City Center
11:16AM 36.5606 -97.2503 20° North 431 496 28,900 600 Climbing Kansas City Center
11:17AM 36.6731 -97.1958 21° North 434 499 29,000  Climbing Kansas City Center
11:18AM 36.8056 -97.1231 24° Northeast 436 502 29,000  Level Kansas City Center
11:19AM 36.9083 -97.0544 28° Northeast 435 501 29,000  Level Kansas City Center
11:20AM 37.0142 -96.9839 28° Northeast 433 498 29,000  Level Kansas City Center
11:21AM 37.1192 -96.9169 27° Northeast 429 494 29,000  Level Kansas City Center
11:22AM 37.2247 -96.8464 28° Northeast 430 495 29,000  Level Kansas City Center
11:23AM 37.3500 -96.7650 27° Northeast 426 490 29,000  Level Kansas City Center
11:24AM 37.4550 -96.6956 28° Northeast 426 490 29,000  Level Kansas City Center
11:25AM 37.5606 -96.6247 28° Northeast 429 494 29,000  Level Kansas City Center
11:26AM 37.6606 -96.5308 37° Northeast 444 511 29,000  Level Kansas City Center
11:27AM 37.7628 -96.4361 36° Northeast 454 522 29,000  Level Kansas City Center
11:28AM 37.8686 -96.3356 37° Northeast 471 542 29,000  Level Kansas City Center
11:29AM 37.9947 -96.2136 37° Northeast 476 548 29,000  Level Kansas City Center
11:30AM 38.1042 -96.1092 37° Northeast 474 545 29,000 -240 Level Kansas City Center
11:31AM 38.2033 -96.0133 37° Northeast 469 540 28,600 -1,800 Descending Kansas City Center
11:32AM 38.3169 -95.9014 38° Northeast 465 535 25,400 -2,760 Descending Kansas City Center
11:33AM 38.4119 -95.8094 37° Northeast 450 518 22,900 -2,640 Descending Kansas City Center
11:34AM 38.5169 -95.7061 38° Northeast 428 493 20,000 -2,520 Descending Kansas City Center
11:35AM 38.6014 -95.6228 38° Northeast 407 468 17,800 -2,280 Descending Kansas City Center
11:36AM 38.6839 -95.5419 37° Northeast 391 450 15,400 -2,460 Descending Kansas City Center
11:37AM 38.7733 -95.4508 38° Northeast 371 427 12,800 -1,680 Descending Kansas City Center
11:38AM 38.8408 -95.3708 43° Northeast 346 398 12,000 -960 Descending Kansas City Center
11:39AM 38.9083 -95.2747 48° Northeast 327 376 10,900 -1,020 Descending Kansas City Center
11:40AM 38.9403 -95.1839 66° East 293 337 9,900 -1,380 Descending Kansas City Center
11:41AM 38.9667 -95.0803 72° East 280 322 8,100 -960 Descending Kansas City Center
11:42AM 38.9581 -94.9897 97° East 268 308 8,000 -1,020 Descending Kansas City Center
11:43AM 38.9697 -94.8917 81° East 259 298 6,000 -1,500 Descending Kansas City Center
11:45AM 39.0139 -94.8306 47° Northeast 247 284 5,000 -540 Descending Kansas City Center
11:46AM 39.0736 -94.7936 26° Northeast 215 247 5,000 -300 Level Kansas City Center
11:47AM 39.1267 -94.7786 12° North 205 236 4,400 -900 Descending Kansas City Center
11:48AM 39.1872 -94.7606 13° North 200 230 3,200 -1,020 Descending Kansas City Center
11:49AM 39.2303 -94.7481 13° North 172 198 2,300 -840 Descending Kansas City Center
11:50AM 39.2697 -94.7361 13° North 133 153 1,500 -660 Descending Kansas City Center
11:51AM 39.3081 -94.7244 13° North 132 152 1,000 -540 Descending Kansas City Center